sensor_id;sensor_type;location;lat;lon;timestamp;pressure;altitude;pressure_sealevel;temperature;humidity
73457;BME280;61691;53.072;6.582;2024-02-15T00:02:26;101498.41;;;11.56;100.00
73457;BME280;61691;53.072;6.582;2024-02-15T00:04:53;101503.97;;;11.53;100.00
73457;BME280;61691;53.072;6.582;2024-02-15T00:07:20;101511.69;;;11.56;100.00
73457;BME280;61691;53.072;6.582;2024-02-15T00:09:49;101496.28;;;11.39;100.00
73457;BME280;61691;53.072;6.582;2024-02-15T00:12:16;101530.00;;;11.59;100.00
73457;BME280;61691;53.072;6.582;2024-02-15T00:14:43;101529.53;;;11.54;100.00
73457;BME280;61691;53.072;6.582;2024-02-15T00:17:09;101525.19;;;11.53;100.00
73457;BME280;61691;53.072;6.582;2024-02-15T00:19:38;101487.56;;;11.37;100.00
73457;BME280;61691;53.072;6.582;2024-02-15T00:22:09;101497.22;;;11.49;100.00
73457;BME280;61691;53.072;6.582;2024-02-15T00:24:37;101469.50;;;11.31;100.00
73457;BME280;61691;53.072;6.582;2024-02-15T00:27:05;101515.03;;;11.58;100.00
73457;BME280;61691;53.072;6.582;2024-02-15T00:29:32;101508.19;;;11.55;100.00
73457;BME280;61691;53.072;6.582;2024-02-15T00:32:01;101488.44;;;11.37;100.00
73457;BME280;61691;53.072;6.582;2024-02-15T00:34:30;101498.91;;;11.50;100.00
73457;BME280;61691;53.072;6.582;2024-02-15T00:36:57;101503.00;;;11.54;100.00
73457;BME280;61691;53.072;6.582;2024-02-15T00:39:24;101503.97;;;11.53;100.00
73457;BME280;61691;53.072;6.582;2024-02-15T00:41:51;101496.97;;;11.52;100.00
73457;BME280;61691;53.072;6.582;2024-02-15T00:44:18;101501.41;;;11.51;100.00
73457;BME280;61691;53.072;6.582;2024-02-15T00:46:44;101495.41;;;11.49;100.00
73457;BME280;61691;53.072;6.582;2024-02-15T00:49:12;101507.91;;;11.58;100.00
73457;BME280;61691;53.072;6.582;2024-02-15T00:51:39;101521.81;;;11.62;100.00
73457;BME280;61691;53.072;6.582;2024-02-15T00:54:05;101491.91;;;11.49;100.00
73457;BME280;61691;53.072;6.582;2024-02-15T00:56:32;101525.88;;;11.66;100.00
73457;BME280;61691;53.072;6.582;2024-02-15T00:58:59;101513.13;;;11.60;100.00
73457;BME280;61691;53.072;6.582;2024-02-15T01:01:27;101514.69;;;11.62;100.00
73457;BME280;61691;53.072;6.582;2024-02-15T01:03:54;101520.00;;;11.62;100.00
73457;BME280;61691;53.072;6.582;2024-02-15T01:06:21;101513.50;;;11.55;100.00
73457;BME280;61691;53.072;6.582;2024-02-15T01:08:49;101508.75;;;11.59;100.00
73457;BME280;61691;53.072;6.582;2024-02-15T01:11:15;101524.22;;;11.65;100.00
73457;BME280;61691;53.072;6.582;2024-02-15T01:13:43;101521.06;;;11.71;100.00
73457;BME280;61691;53.072;6.582;2024-02-15T01:16:11;101492.13;;;11.57;100.00
73457;BME280;61691;53.072;6.582;2024-02-15T01:18:38;101518.41;;;11.71;100.00
73457;BME280;61691;53.072;6.582;2024-02-15T01:21:05;101462.38;;;11.42;100.00
73457;BME280;61691;53.072;6.582;2024-02-15T01:23:33;101511.06;;;11.63;100.00
73457;BME280;61691;53.072;6.582;2024-02-15T01:26:01;101463.22;;;11.32;100.00
73457;BME280;61691;53.072;6.582;2024-02-15T01:28:28;101517.69;;;11.69;100.00
73457;BME280;61691;53.072;6.582;2024-02-15T01:30:55;101496.44;;;11.58;100.00
73457;BME280;61691;53.072;6.582;2024-02-15T01:33:22;101481.28;;;11.49;100.00
73457;BME280;61691;53.072;6.582;2024-02-15T01:35:48;101500.81;;;11.59;100.00
73457;BME280;61691;53.072;6.582;2024-02-15T01:38:15;101511.63;;;11.67;100.00
73457;BME280;61691;53.072;6.582;2024-02-15T01:40:42;101496.44;;;11.58;100.00
73457;BME280;61691;53.072;6.582;2024-02-15T01:43:09;101453.13;;;11.25;100.00
73457;BME280;61691;53.072;6.582;2024-02-15T01:45:35;101510.22;;;11.63;100.00
73457;BME280;61691;53.072;6.582;2024-02-15T01:48:02;101503.78;;;11.65;100.00
73457;BME280;61691;53.072;6.582;2024-02-15T01:50:31;101516.94;;;11.67;100.00
73457;BME280;61691;53.072;6.582;2024-02-15T01:53:01;101499.00;;;11.59;100.00
73457;BME280;61691;53.072;6.582;2024-02-15T01:55:29;101515.25;;;11.66;100.00
73457;BME280;61691;53.072;6.582;2024-02-15T01:57:56;101513.59;;;11.65;100.00
73457;BME280;61691;53.072;6.582;2024-02-15T02:00:23;101510.94;;;11.65;100.00
73457;BME280;61691;53.072;6.582;2024-02-15T02:02:53;101503.09;;;11.63;100.00
73457;BME280;61691;53.072;6.582;2024-02-15T02:05:20;101504.19;;;11.61;100.00
73457;BME280;61691;53.072;6.582;2024-02-15T02:07:46;101509.25;;;11.64;100.00
73457;BME280;61691;53.072;6.582;2024-02-15T02:10:13;101508.53;;;11.62;100.00
73457;BME280;61691;53.072;6.582;2024-02-15T02:12:41;101520.56;;;11.66;100.00
73457;BME280;61691;53.072;6.582;2024-02-15T02:15:09;101508.75;;;11.59;100.00
73457;BME280;61691;53.072;6.582;2024-02-15T02:17:37;101492.38;;;11.54;100.00
73457;BME280;61691;53.072;6.582;2024-02-15T02:20:06;101512.50;;;11.68;100.00
73457;BME280;61691;53.072;6.582;2024-02-15T02:22:35;101509.72;;;11.69;100.00
73457;BME280;61691;53.072;6.582;2024-02-15T02:25:06;101517.56;;;11.71;100.00
73457;BME280;61691;53.072;6.582;2024-02-15T02:27:35;101483.31;;;11.56;100.00
73457;BME280;61691;53.072;6.582;2024-02-15T02:30:12;101519.94;;;11.74;100.00
73457;BME280;61691;53.072;6.582;2024-02-15T02:32:45;101503.56;;;11.69;100.00
73457;BME280;61691;53.072;6.582;2024-02-15T02:35:15;101507.53;;;11.74;100.00
73457;BME280;61691;53.072;6.582;2024-02-15T02:37:47;101506.66;;;11.74;100.00
73457;BME280;61691;53.072;6.582;2024-02-15T02:40:13;101500.31;;;11.76;100.00
73457;BME280;61691;53.072;6.582;2024-02-15T02:42:54;101501.97;;;11.66;100.00
73457;BME280;61691;53.072;6.582;2024-02-15T02:45:27;101453.78;;;11.39;100.00
73457;BME280;61691;53.072;6.582;2024-02-15T02:47:54;101516.13;;;11.78;100.00
73457;BME280;61691;53.072;6.582;2024-02-15T02:50:22;101490.50;;;11.65;100.00
73457;BME280;61691;53.072;6.582;2024-02-15T02:52:51;101462.81;;;11.47;100.00
73457;BME280;61691;53.072;6.582;2024-02-15T02:55:18;101508.72;;;11.81;100.00
73457;BME280;61691;53.072;6.582;2024-02-15T02:57:45;101502.00;;;11.77;100.00
73457;BME280;61691;53.072;6.582;2024-02-15T03:00:13;101498.38;;;11.78;100.00
73457;BME280;61691;53.072;6.582;2024-02-15T03:02:46;101504.03;;;11.85;100.00
73457;BME280;61691;53.072;6.582;2024-02-15T03:05:13;101502.94;;;11.87;100.00
73457;BME280;61691;53.072;6.582;2024-02-15T03:07:40;101469.16;;;11.67;100.00
73457;BME280;61691;53.072;6.582;2024-02-15T03:10:07;101497.88;;;11.84;100.00
73457;BME280;61691;53.072;6.582;2024-02-15T03:12:38;101488.84;;;11.76;100.00
73457;BME280;61691;53.072;6.582;2024-02-15T03:15:06;101492.56;;;11.84;100.00
73457;BME280;61691;53.072;6.582;2024-02-15T03:17:40;101499.56;;;11.85;100.00
73457;BME280;61691;53.072;6.582;2024-02-15T03:20:08;101444.19;;;11.58;100.00
73457;BME280;61691;53.072;6.582;2024-02-15T03:22:57;101433.22;;;11.52;100.00
73457;BME280;61691;53.072;6.582;2024-02-15T03:25:24;101487.81;;;11.88;100.00
73457;BME280;61691;53.072;6.582;2024-02-15T03:27:53;101468.56;;;11.75;100.00
73457;BME280;61691;53.072;6.582;2024-02-15T03:30:24;101432.16;;;11.54;100.00
73457;BME280;61691;53.072;6.582;2024-02-15T03:32:52;101494.25;;;11.85;100.00
73457;BME280;61691;53.072;6.582;2024-02-15T03:35:20;101493.72;;;11.91;100.00
73457;BME280;61691;53.072;6.582;2024-02-15T03:37:49;101499.88;;;11.92;100.00
73457;BME280;61691;53.072;6.582;2024-02-15T03:40:20;101476.16;;;11.79;100.00
73457;BME280;61691;53.072;6.582;2024-02-15T03:42:47;101468.19;;;11.79;100.00
73457;BME280;61691;53.072;6.582;2024-02-15T03:45:16;101422.63;;;11.52;100.00
73457;BME280;61691;53.072;6.582;2024-02-15T03:47:43;101491.06;;;11.91;100.00
73457;BME280;61691;53.072;6.582;2024-02-15T03:50:10;101489.50;;;11.89;100.00
73457;BME280;61691;53.072;6.582;2024-02-15T03:52:38;101424.69;;;11.48;100.00
73457;BME280;61691;53.072;6.582;2024-02-15T03:55:05;101490.63;;;11.86;100.00
73457;BME280;61691;53.072;6.582;2024-02-15T03:57:34;101491.47;;;11.87;100.00
73457;BME280;61691;53.072;6.582;2024-02-15T04:00:01;101497.34;;;11.90;100.00
73457;BME280;61691;53.072;6.582;2024-02-15T04:02:28;101488.19;;;11.83;100.00
73457;BME280;61691;53.072;6.582;2024-02-15T04:04:56;101492.31;;;11.87;100.00
73457;BME280;61691;53.072;6.582;2024-02-15T04:07:23;101477.56;;;11.83;100.00
73457;BME280;61691;53.072;6.582;2024-02-15T04:09:53;101467.06;;;11.82;100.00
73457;BME280;61691;53.072;6.582;2024-02-15T04:12:20;101488.41;;;11.91;100.00
73457;BME280;61691;53.072;6.582;2024-02-15T04:14:48;101475.66;;;11.85;100.00
73457;BME280;61691;53.072;6.582;2024-02-15T04:17:15;101445.97;;;11.69;99.86
73457;BME280;61691;53.072;6.582;2024-02-15T04:19:45;101472.16;;;11.85;99.93
73457;BME280;61691;53.072;6.582;2024-02-15T04:22:22;101477.56;;;11.83;100.00
73457;BME280;61691;53.072;6.582;2024-02-15T04:24:48;101419.50;;;11.47;100.00
73457;BME280;61691;53.072;6.582;2024-02-15T04:27:16;101468.63;;;11.73;100.00
73457;BME280;61691;53.072;6.582;2024-02-15T04:29:47;101479.84;;;11.88;100.00
73457;BME280;61691;53.072;6.582;2024-02-15T04:32:13;101473.00;;;11.85;100.00
73457;BME280;61691;53.072;6.582;2024-02-15T04:34:40;101471.53;;;11.81;100.00
73457;BME280;61691;53.072;6.582;2024-02-15T04:37:07;101438.97;;;11.68;100.00
73457;BME280;61691;53.072;6.582;2024-02-15T04:39:35;101473.84;;;11.86;100.00
73457;BME280;61691;53.072;6.582;2024-02-15T04:42:03;101456.13;;;11.75;100.00
73457;BME280;61691;53.072;6.582;2024-02-15T04:44:31;101455.88;;;11.78;100.00
73457;BME280;61691;53.072;6.582;2024-02-15T04:47:01;101451.03;;;11.72;100.00
73457;BME280;61691;53.072;6.582;2024-02-15T04:49:34;101425.47;;;11.60;100.00
73457;BME280;61691;53.072;6.582;2024-02-15T04:52:05;101462.88;;;11.79;100.00
73457;BME280;61691;53.072;6.582;2024-02-15T04:54:33;101486.72;;;11.90;100.00
73457;BME280;61691;53.072;6.582;2024-02-15T04:57:00;101481.16;;;11.93;100.00
73457;BME280;61691;53.072;6.582;2024-02-15T04:59:27;101400.19;;;11.45;100.00
73457;BME280;61691;53.072;6.582;2024-02-15T05:01:55;101391.50;;;11.43;100.00
73457;BME280;61691;53.072;6.582;2024-02-15T05:04:25;101448.34;;;11.83;100.00
73457;BME280;61691;53.072;6.582;2024-02-15T05:06:52;101471.72;;;12.00;100.00
73457;BME280;61691;53.072;6.582;2024-02-15T05:09:20;101434.09;;;11.84;100.00
73457;BME280;61691;53.072;6.582;2024-02-15T05:11:46;101453.63;;;11.94;100.00
73457;BME280;61691;53.072;6.582;2024-02-15T05:14:16;101448.75;;;11.99;100.00
73457;BME280;61691;53.072;6.582;2024-02-15T05:16:47;101419.34;;;11.91;100.00
73457;BME280;61691;53.072;6.582;2024-02-15T05:19:16;101418.69;;;11.99;100.00
73457;BME280;61691;53.072;6.582;2024-02-15T05:21:44;101406.78;;;11.93;100.00
73457;BME280;61691;53.072;6.582;2024-02-15T05:24:16;101407.94;;;12.00;100.00
73457;BME280;61691;53.072;6.582;2024-02-15T05:26:44;101402.16;;;11.95;100.00
73457;BME280;61691;53.072;6.582;2024-02-15T05:29:15;101414.94;;;12.01;100.00
73457;BME280;61691;53.072;6.582;2024-02-15T05:31:43;101408.78;;;12.01;100.00
73457;BME280;61691;53.072;6.582;2024-02-15T05:34:11;101412.97;;;12.03;100.00
73457;BME280;61691;53.072;6.582;2024-02-15T05:36:40;101414.94;;;12.01;100.00
73457;BME280;61691;53.072;6.582;2024-02-15T05:39:08;101414.34;;;11.98;100.00
73457;BME280;61691;53.072;6.582;2024-02-15T05:41:38;101403.41;;;11.91;100.00
73457;BME280;61691;53.072;6.582;2024-02-15T05:44:05;101414.34;;;11.98;100.00
73457;BME280;61691;53.072;6.582;2024-02-15T05:46:33;101405.09;;;11.92;100.00
73457;BME280;61691;53.072;6.582;2024-02-15T05:49:04;101411.81;;;11.96;100.00
73457;BME280;61691;53.072;6.582;2024-02-15T05:51:32;101413.63;;;11.96;100.00
73457;BME280;61691;53.072;6.582;2024-02-15T05:54:00;101415.19;;;11.98;100.00
73457;BME280;61691;53.072;6.582;2024-02-15T05:56:27;101417.84;;;11.98;100.00
73457;BME280;61691;53.072;6.582;2024-02-15T05:58:56;101408.19;;;11.97;100.00
73457;BME280;61691;53.072;6.582;2024-02-15T06:01:23;101399.19;;;11.89;100.00
73457;BME280;61691;53.072;6.582;2024-02-15T06:03:50;101426.25;;;12.03;100.00
73457;BME280;61691;53.072;6.582;2024-02-15T06:06:22;101415.19;;;11.98;100.00
73457;BME280;61691;53.072;6.582;2024-02-15T06:08:50;101406.50;;;11.96;100.00
73457;BME280;61691;53.072;6.582;2024-02-15T06:11:19;101409.88;;;11.98;100.00
73457;BME280;61691;53.072;6.582;2024-02-15T06:13:49;101413.50;;;11.97;100.00
73457;BME280;61691;53.072;6.582;2024-02-15T06:16:16;101394.97;;;11.86;100.00
73457;BME280;61691;53.072;6.582;2024-02-15T06:18:42;101424.72;;;12.01;100.00
73457;BME280;61691;53.072;6.582;2024-02-15T06:21:09;101414.09;;;12.01;100.00
73457;BME280;61691;53.072;6.582;2024-02-15T06:23:36;101351.13;;;11.60;100.00
73457;BME280;61691;53.072;6.582;2024-02-15T06:26:04;101399.19;;;11.89;100.00
73457;BME280;61691;53.072;6.582;2024-02-15T06:28:31;101415.19;;;11.98;100.00
73457;BME280;61691;53.072;6.582;2024-02-15T06:31:16;101419.28;;;12.02;100.00
73457;BME280;61691;53.072;6.582;2024-02-15T06:34:01;101396.59;;;11.98;100.00
73457;BME280;61691;53.072;6.582;2024-02-15T06:36:48;101406.00;;;12.02;100.00
73457;BME280;61691;53.072;6.582;2024-02-15T06:39:34;101417.91;;;12.08;100.00
73457;BME280;61691;53.072;6.582;2024-02-15T06:42:15;101420.81;;;12.05;100.00
73457;BME280;61691;53.072;6.582;2024-02-15T06:44:44;101364.97;;;11.75;100.00
73457;BME280;61691;53.072;6.582;2024-02-15T06:47:12;101422.25;;;12.09;100.00
73457;BME280;61691;53.072;6.582;2024-02-15T06:49:39;101394.91;;;11.97;100.00
73457;BME280;61691;53.072;6.582;2024-02-15T06:52:07;101421.13;;;12.12;100.00
73457;BME280;61691;53.072;6.582;2024-02-15T06:54:38;101397.75;;;12.06;100.00
73457;BME280;61691;53.072;6.582;2024-02-15T06:57:05;101403.50;;;12.11;100.00
73457;BME280;61691;53.072;6.582;2024-02-15T06:59:33;101418.25;;;12.15;100.00
73457;BME280;61691;53.072;6.582;2024-02-15T07:02:01;101398.84;;;12.03;100.00
73457;BME280;61691;53.072;6.582;2024-02-15T07:04:32;101375.75;;;11.94;100.00
73457;BME280;61691;53.072;6.582;2024-02-15T07:06:59;101408.56;;;12.14;100.00
73457;BME280;61691;53.072;6.582;2024-02-15T07:09:28;101385.72;;;12.01;100.00
73457;BME280;61691;53.072;6.582;2024-02-15T07:11:56;101413.66;;;12.17;100.00
73457;BME280;61691;53.072;6.582;2024-02-15T07:14:25;101413.16;;;12.12;100.00
73457;BME280;61691;53.072;6.582;2024-02-15T07:16:54;101405.34;;;12.10;100.00
73457;BME280;61691;53.072;6.582;2024-02-15T07:19:24;101411.94;;;12.16;100.00
73457;BME280;61691;53.072;6.582;2024-02-15T07:21:54;101420.66;;;12.18;100.00
73457;BME280;61691;53.072;6.582;2024-02-15T07:24:21;101372.75;;;11.87;100.00
73457;BME280;61691;53.072;6.582;2024-02-15T07:26:48;101415.81;;;12.12;100.00
73457;BME280;61691;53.072;6.582;2024-02-15T07:29:15;101424.00;;;12.20;100.00
73457;BME280;61691;53.072;6.582;2024-02-15T07:31:42;101418.25;;;12.15;100.00
73457;BME280;61691;53.072;6.582;2024-02-15T07:34:08;101388.38;;;12.01;100.00
73457;BME280;61691;53.072;6.582;2024-02-15T07:36:36;101420.66;;;12.18;100.00
73457;BME280;61691;53.072;6.582;2024-02-15T07:39:03;101414.59;;;12.16;100.00
73457;BME280;61691;53.072;6.582;2024-02-15T07:41:30;101419.94;;;12.16;100.00
73457;BME280;61691;53.072;6.582;2024-02-15T07:44:00;101409.94;;;12.08;100.00
73457;BME280;61691;53.072;6.582;2024-02-15T07:46:28;101395.94;;;12.06;100.00
73457;BME280;61691;53.072;6.582;2024-02-15T07:48:55;101428.22;;;12.22;100.00
73457;BME280;61691;53.072;6.582;2024-02-15T07:51:23;101373.09;;;11.94;100.00
73457;BME280;61691;53.072;6.582;2024-02-15T07:53:51;101411.66;;;12.19;100.00
73457;BME280;61691;53.072;6.582;2024-02-15T07:56:18;101411.66;;;12.19;100.00
73457;BME280;61691;53.072;6.582;2024-02-15T07:58:47;101414.81;;;12.24;100.00
73457;BME280;61691;53.072;6.582;2024-02-15T08:01:19;101409.50;;;12.24;100.00
73457;BME280;61691;53.072;6.582;2024-02-15T08:03:52;101401.19;;;12.17;100.00
73457;BME280;61691;53.072;6.582;2024-02-15T08:06:21;101413.84;;;12.25;100.00
73457;BME280;61691;53.072;6.582;2024-02-15T08:08:52;101407.34;;;12.18;100.00
73457;BME280;61691;53.072;6.582;2024-02-15T08:11:19;101413.97;;;12.23;100.00
73457;BME280;61691;53.072;6.582;2024-02-15T08:13:51;101408.88;;;12.20;100.00
73457;BME280;61691;53.072;6.582;2024-02-15T08:16:22;101419.28;;;12.23;100.00
73457;BME280;61691;53.072;6.582;2024-02-15T08:18:50;101413.13;;;12.23;100.00
73457;BME280;61691;53.072;6.582;2024-02-15T08:21:28;101408.03;;;12.20;100.00
73457;BME280;61691;53.072;6.582;2024-02-15T08:23:56;101419.53;;;12.20;100.00
73457;BME280;61691;53.072;6.582;2024-02-15T08:26:23;101428.78;;;12.26;100.00
73457;BME280;61691;53.072;6.582;2024-02-15T08:28:50;101424.31;;;12.26;100.00
73457;BME280;61691;53.072;6.582;2024-02-15T08:31:17;101420.69;;;12.27;100.00
73457;BME280;61691;53.072;6.582;2024-02-15T08:33:45;101414.81;;;12.24;100.00
73457;BME280;61691;53.072;6.582;2024-02-15T08:36:13;101398.53;;;12.17;100.00
73457;BME280;61691;53.072;6.582;2024-02-15T08:38:43;101416.63;;;12.23;100.00
73457;BME280;61691;53.072;6.582;2024-02-15T08:41:12;101409.75;;;12.21;100.00
73457;BME280;61691;53.072;6.582;2024-02-15T08:43:39;101406.09;;;12.22;100.00
73457;BME280;61691;53.072;6.582;2024-02-15T08:46:07;101375.66;;;12.05;100.00
73457;BME280;61691;53.072;6.582;2024-02-15T08:48:34;101388.59;;;12.19;100.00
73457;BME280;61691;53.072;6.582;2024-02-15T08:51:02;101393.06;;;12.19;100.00
73457;BME280;61691;53.072;6.582;2024-02-15T08:53:29;101407.00;;;12.32;100.00
73457;BME280;61691;53.072;6.582;2024-02-15T08:55:56;101410.38;;;12.34;100.00
73457;BME280;61691;53.072;6.582;2024-02-15T08:58:22;101408.41;;;12.36;100.00
73457;BME280;61691;53.072;6.582;2024-02-15T09:00:49;101402.97;;;12.37;100.00
73457;BME280;61691;53.072;6.582;2024-02-15T09:03:16;101387.94;;;12.27;100.00
73457;BME280;61691;53.072;6.582;2024-02-15T09:05:43;101412.78;;;12.37;100.00
73457;BME280;61691;53.072;6.582;2024-02-15T09:08:10;101374.47;;;12.19;100.00
73457;BME280;61691;53.072;6.582;2024-02-15T09:10:36;101378.94;;;12.18;100.00
73457;BME280;61691;53.072;6.582;2024-02-15T09:13:05;101402.13;;;12.37;100.00
73457;BME280;61691;53.072;6.582;2024-02-15T09:15:33;101396.63;;;12.29;100.00
73457;BME280;61691;53.072;6.582;2024-02-15T09:18:00;101403.34;;;12.33;100.00
73457;BME280;61691;53.072;6.582;2024-02-15T09:20:27;101410.38;;;12.34;100.00
73457;BME280;61691;53.072;6.582;2024-02-15T09:23:00;101408.41;;;12.36;100.00
73457;BME280;61691;53.072;6.582;2024-02-15T09:25:34;101415.19;;;12.40;100.00
73457;BME280;61691;53.072;6.582;2024-02-15T09:28:03;101400.69;;;12.33;100.00
73457;BME280;61691;53.072;6.582;2024-02-15T09:30:29;101407.19;;;12.40;100.00
73457;BME280;61691;53.072;6.582;2024-02-15T09:32:58;101360.19;;;12.20;100.00
73457;BME280;61691;53.072;6.582;2024-02-15T09:35:25;101403.28;;;12.44;100.00
73457;BME280;61691;53.072;6.582;2024-02-15T09:37:52;101405.41;;;12.50;100.00
73457;BME280;61691;53.072;6.582;2024-02-15T09:40:19;101392.94;;;12.51;100.00
73457;BME280;61691;53.072;6.582;2024-02-15T09:42:47;101345.81;;;12.22;100.00
73457;BME280;61691;53.072;6.582;2024-02-15T09:45:14;101381.09;;;12.55;100.00
73457;BME280;61691;53.072;6.582;2024-02-15T09:47:43;101389.75;;;12.57;100.00
73457;BME280;61691;53.072;6.582;2024-02-15T09:50:11;101395.38;;;12.63;100.00
73457;BME280;61691;53.072;6.582;2024-02-15T09:52:44;101370.03;;;12.59;100.00
73457;BME280;61691;53.072;6.582;2024-02-15T09:55:11;101383.25;;;12.70;100.00
73457;BME280;61691;53.072;6.582;2024-02-15T09:57:44;101391.66;;;12.75;100.00
73457;BME280;61691;53.072;6.582;2024-02-15T10:00:12;101355.34;;;12.55;100.00
73457;BME280;61691;53.072;6.582;2024-02-15T10:02:46;101383.38;;;12.78;100.00
73457;BME280;61691;53.072;6.582;2024-02-15T10:05:13;101369.41;;;12.76;100.00
73457;BME280;61691;53.072;6.582;2024-02-15T10:07:41;101365.78;;;12.77;100.00
73457;BME280;61691;53.072;6.582;2024-02-15T10:12:43;101371.66;;;12.81;100.00
73457;BME280;61691;53.072;6.582;2024-02-15T10:15:31;101375.88;;;12.84;100.00
73457;BME280;61691;53.072;6.582;2024-02-15T10:18:09;101384.00;;;12.92;100.00
73457;BME280;61691;53.072;6.582;2024-02-15T10:20:41;101363.78;;;12.79;100.00
73457;BME280;61691;53.072;6.582;2024-02-15T10:23:13;101376.72;;;12.94;100.00
73457;BME280;61691;53.072;6.582;2024-02-15T10:25:40;101388.50;;;13.01;100.00
73457;BME280;61691;53.072;6.582;2024-02-15T10:28:11;101352.47;;;12.87;100.00
73457;BME280;61691;53.072;6.582;2024-02-15T10:30:40;101372.53;;;13.01;100.00
73457;BME280;61691;53.072;6.582;2024-02-15T10:33:19;101375.63;;;13.06;100.00
73457;BME280;61691;53.072;6.582;2024-02-15T10:36:10;101343.94;;;12.93;100.00
73457;BME280;61691;53.072;6.582;2024-02-15T10:38:38;101359.91;;;13.03;100.00
73457;BME280;61691;53.072;6.582;2024-02-15T10:41:06;101369.75;;;13.12;100.00
73457;BME280;61691;53.072;6.582;2024-02-15T10:43:35;101372.03;;;13.16;100.00
73457;BME280;61691;53.072;6.582;2024-02-15T10:46:04;101348.72;;;13.09;100.00
73457;BME280;61691;53.072;6.582;2024-02-15T10:48:31;101370.66;;;13.22;100.00
73457;BME280;61691;53.072;6.582;2024-02-15T10:51:03;101366.97;;;13.23;100.00
73457;BME280;61691;53.072;6.582;2024-02-15T10:53:35;101363.06;;;13.27;100.00
73457;BME280;61691;53.072;6.582;2024-02-15T10:58:33;101367.44;;;13.28;100.00
73457;BME280;61691;53.072;6.582;2024-02-15T11:01:06;101357.59;;;13.19;99.94
73457;BME280;61691;53.072;6.582;2024-02-15T11:03:48;101340.91;;;13.07;100.00
73457;BME280;61691;53.072;6.582;2024-02-15T11:06:19;101368.38;;;13.17;99.97
73457;BME280;61691;53.072;6.582;2024-02-15T11:08:48;101350.47;;;13.20;100.00
73457;BME280;61691;53.072;6.582;2024-02-15T11:11:16;101353.97;;;13.20;100.00
73457;BME280;61691;53.072;6.582;2024-02-15T11:13:45;101352.00;;;13.22;100.00
73457;BME280;61691;53.072;6.582;2024-02-15T11:16:39;101339.38;;;13.24;100.00
73457;BME280;61691;53.072;6.582;2024-02-15T11:19:06;101339.25;;;13.26;100.00
73457;BME280;61691;53.072;6.582;2024-02-15T11:21:53;101289.34;;;12.99;100.00
73457;BME280;61691;53.072;6.582;2024-02-15T11:24:27;101358.31;;;13.40;100.00
73457;BME280;61691;53.072;6.582;2024-02-15T11:27:02;101325.38;;;13.22;100.00
73457;BME280;61691;53.072;6.582;2024-02-15T11:32:36;101367.00;;;13.52;100.00
73457;BME280;61691;53.072;6.582;2024-02-15T11:35:13;101363.06;;;13.56;99.81
73457;BME280;61691;53.072;6.582;2024-02-15T11:43:08;101359.44;;;13.57;99.84
73457;BME280;61691;53.072;6.582;2024-02-15T11:45:37;101374.00;;;13.63;99.66
73457;BME280;61691;53.072;6.582;2024-02-15T11:48:12;101358.03;;;13.63;99.87
73457;BME280;61691;53.072;6.582;2024-02-15T11:50:40;101335.06;;;13.42;99.50
73457;BME280;61691;53.072;6.582;2024-02-15T11:53:08;101358.03;;;13.63;99.52
73457;BME280;61691;53.072;6.582;2024-02-15T11:55:38;101360.28;;;13.57;99.60
73457;BME280;61691;53.072;6.582;2024-02-15T11:58:07;101353.84;;;13.60;99.66
73457;BME280;61691;53.072;6.582;2024-02-15T12:00:38;101355.34;;;13.63;99.86
73457;BME280;61691;53.072;6.582;2024-02-15T12:03:24;101358.47;;;13.58;99.41
73457;BME280;61691;53.072;6.582;2024-02-15T12:06:27;101338.41;;;13.44;99.43
73457;BME280;61691;53.072;6.582;2024-02-15T12:09:17;101334.47;;;13.39;99.46
73457;BME280;61691;53.072;6.582;2024-02-15T12:12:04;101337.31;;;13.37;99.25
73457;BME280;61691;53.072;6.582;2024-02-15T12:14:49;101310.13;;;13.14;99.57
73457;BME280;61691;53.072;6.582;2024-02-15T12:17:35;101356.09;;;13.45;99.22
73457;BME280;61691;53.072;6.582;2024-02-15T12:20:20;101356.50;;;13.41;99.38
73457;BME280;61691;53.072;6.582;2024-02-15T12:22:52;101343.59;;;13.36;99.41
73457;BME280;61691;53.072;6.582;2024-02-15T12:25:20;101327.22;;;13.22;99.36
73457;BME280;61691;53.072;6.582;2024-02-15T12:27:54;101354.94;;;13.38;99.39
73457;BME280;61691;53.072;6.582;2024-02-15T12:30:22;101331.41;;;13.24;99.55
73457;BME280;61691;53.072;6.582;2024-02-15T12:32:50;101352.28;;;13.38;99.40
73457;BME280;61691;53.072;6.582;2024-02-15T12:35:19;101336.19;;;13.30;99.18
73457;BME280;61691;53.072;6.582;2024-02-15T12:37:47;101314.59;;;13.14;99.23
73457;BME280;61691;53.072;6.582;2024-02-15T12:40:16;101320.91;;;13.13;99.35
73457;BME280;61691;53.072;6.582;2024-02-15T12:42:44;101346.38;;;13.25;99.26
73457;BME280;61691;53.072;6.582;2024-02-15T12:45:21;101333.38;;;13.22;99.30
73457;BME280;61691;53.072;6.582;2024-02-15T12:47:52;101288.50;;;12.98;99.39
73457;BME280;61691;53.072;6.582;2024-02-15T12:50:23;101336.59;;;13.26;99.31
73457;BME280;61691;53.072;6.582;2024-02-15T12:52:50;101333.38;;;13.22;99.30
73457;BME280;61691;53.072;6.582;2024-02-15T12:57:49;101316.50;;;13.12;99.30
73457;BME280;61691;53.072;6.582;2024-02-15T13:00:20;101315.44;;;13.14;99.39
73457;BME280;61691;53.072;6.582;2024-02-15T13:02:49;101320.47;;;13.17;99.50
73457;BME280;61691;53.072;6.582;2024-02-15T13:05:17;101325.22;;;13.24;99.41
73457;BME280;61691;53.072;6.582;2024-02-15T13:07:49;101320.75;;;13.24;99.39
73457;BME280;61691;53.072;6.582;2024-02-15T13:10:17;101313.47;;;13.26;99.25